Time;durP1;ratioP1;P1;durP2;ratioP2;P2;SDS_P1;SDS_P2;PMS_P1;PMS_P2;Temp;Humidity;BMP_temperature;BMP_pressure;BME280_temperature;BME280_humidity;BME280_pressure;Samples;Min_cycle;Max_cycle;Signal;HPM_P1;HPM_P2
2021/07/14 00:00:36;;;;;;;47.30;31.33;;;18.10;99.90;;;;;;4365470;32;20180;-62
2021/07/14 00:03:03;;;;;;;63.37;36.03;;;18.00;99.90;;;;;;4365598;32;20181;-61
2021/07/14 00:05:32;;;;;;;66.00;34.73;;;17.90;99.90;;;;;;4366411;32;20213;-61
2021/07/14 00:07:59;;;;;;;61.27;33.73;;;17.80;99.90;;;;;;4367322;32;20175;-61
2021/07/14 00:10:29;;;;;;;48.53;29.17;;;17.90;99.90;;;;;;4368733;32;20394;-61
2021/07/14 00:13:03;;;;;;;68.70;35.33;;;17.80;99.90;;;;;;4361771;32;20180;-61
2021/07/14 00:23:45;;;;;;;62.23;33.67;;;17.90;99.90;;;;;;4374920;32;20178;-61
2021/07/14 00:26:12;;;;;;;55.13;28.77;;;17.80;99.90;;;;;;4376568;32;20148;-61
2021/07/14 00:28:40;;;;;;;53.87;30.60;;;17.90;99.90;;;;;;4375294;32;20494;-61
2021/07/14 00:31:13;;;;;;;56.10;31.20;;;17.90;99.90;;;;;;4375944;32;20149;-61
2021/07/14 00:33:42;;;;;;;52.37;29.47;;;17.90;99.90;;;;;;4375507;32;20187;-62
2021/07/14 00:36:08;;;;;;;59.70;31.13;;;17.90;99.90;;;;;;4376693;32;20239;-62
2021/07/14 00:38:35;;;;;;;61.77;33.47;;;17.90;99.90;;;;;;4374233;32;20243;-62
2021/07/14 00:41:02;;;;;;;60.33;33.10;;;17.90;99.90;;;;;;4377272;32;20199;-62
2021/07/14 00:43:29;;;;;;;60.23;32.97;;;17.90;99.90;;;;;;4366005;32;20209;-61
2021/07/14 00:45:57;;;;;;;59.13;32.80;;;17.80;99.90;;;;;;4363382;32;20212;-61
2021/07/14 00:48:27;;;;;;;46.40;27.20;;;17.90;99.90;;;;;;4360939;32;20153;-62
2021/07/14 00:50:56;;;;;;;63.00;31.67;;;18.00;99.90;;;;;;4367711;32;20576;-61
2021/07/14 00:53:22;;;;;;;49.30;26.83;;;18.00;99.90;;;;;;4377372;32;20220;-61
2021/07/14 00:55:50;;;;;;;59.67;31.87;;;18.00;99.90;;;;;;4376761;32;20536;-61
2021/07/14 00:58:17;;;;;;;47.23;27.23;;;17.90;99.90;;;;;;4375690;32;20165;-61
2021/07/14 01:00:44;;;;;;;65.73;36.00;;;18.00;99.90;;;;;;4365882;32;20524;-61
2021/07/14 01:03:13;;;;;;;52.83;29.00;;;17.90;99.90;;;;;;4377275;32;20205;-62
2021/07/14 01:05:45;;;;;;;67.37;35.33;;;17.90;99.90;;;;;;4384061;32;20615;-61
2021/07/14 01:08:18;;;;;;;71.83;36.30;;;18.00;99.90;;;;;;4377229;32;20460;-62
2021/07/14 01:10:50;;;;;;;62.27;31.00;;;18.00;99.90;;;;;;4373541;32;20230;-62
2021/07/14 01:13:24;;;;;;;59.93;33.37;;;18.00;99.90;;;;;;4375552;32;20157;-60
2021/07/14 01:15:56;;;;;;;67.50;33.37;;;18.00;99.90;;;;;;4376007;32;20160;-62
2021/07/14 01:18:29;;;;;;;67.60;34.27;;;18.00;99.90;;;;;;4375787;32;20204;-61
2021/07/14 01:20:59;;;;;;;70.20;34.43;;;18.00;99.90;;;;;;4364810;32;20457;-61
2021/07/14 01:23:45;;;;;;;51.83;30.17;;;18.00;99.90;;;;;;4360625;32;20208;-61
2021/07/14 01:26:23;;;;;;;54.23;29.90;;;18.10;99.90;;;;;;4375935;32;20216;-61
2021/07/14 01:28:55;;;;;;;49.00;27.33;;;18.10;99.90;;;;;;4375434;32;20160;-61
2021/07/14 01:31:24;;;;;;;51.93;28.23;;;18.20;99.90;;;;;;4363783;32;20210;-61
2021/07/14 01:33:58;;;;;;;60.47;30.27;;;18.30;99.90;;;;;;4360374;32;20217;-61
2021/07/14 01:36:27;;;;;;;50.33;28.03;;;18.20;99.90;;;;;;4374447;32;20179;-61
2021/07/14 01:38:56;;;;;;;47.43;26.50;;;18.10;99.90;;;;;;4389005;32;20160;-61
2021/07/14 01:41:27;;;;;;;46.90;27.70;;;18.20;99.90;;;;;;4365684;32;20212;-62
2021/07/14 01:44:01;;;;;;;54.33;29.23;;;18.20;99.90;;;;;;4366186;32;20160;-62
2021/07/14 01:46:31;;;;;;;42.13;25.70;;;18.10;99.90;;;;;;4375272;32;20206;-61
2021/07/14 01:49:03;;;;;;;50.90;27.93;;;18.10;99.90;;;;;;4374684;32;20564;-61
2021/07/14 01:51:30;;;;;;;52.43;26.97;;;18.10;99.90;;;;;;4374479;32;20223;-61
2021/07/14 01:54:04;;;;;;;55.50;28.20;;;18.10;99.90;;;;;;4375041;32;20209;-63
2021/07/14 01:56:33;;;;;;;45.27;26.43;;;18.00;99.90;;;;;;4376452;32;20675;-62
2021/07/14 01:59:02;;;;;;;39.07;23.83;;;18.00;99.90;;;;;;4374834;32;20232;-61
2021/07/14 02:01:31;;;;;;;44.97;24.70;;;18.10;99.90;;;;;;4367578;32;20591;-61
2021/07/14 02:06:47;;;;;;;53.83;29.17;;;18.10;99.90;;;;;;4374725;32;20171;-61
2021/07/14 02:09:14;;;;;;;51.80;28.53;;;18.10;99.90;;;;;;4374584;32;20152;-61
2021/07/14 02:11:43;;;;;;;49.10;26.27;;;18.10;99.90;;;;;;4373948;32;20215;-61
2021/07/14 02:14:13;;;;;;;44.67;25.93;;;18.10;99.90;;;;;;4375694;32;20208;-61
2021/07/14 02:16:42;;;;;;;42.77;24.63;;;18.20;99.90;;;;;;4375150;32;20176;-61
2021/07/14 02:19:12;;;;;;;44.70;25.80;;;18.30;99.90;;;;;;4375391;32;20248;-62
2021/07/14 02:21:40;;;;;;;45.50;24.73;;;18.20;99.90;;;;;;4373264;32;20259;-62
2021/07/14 02:24:11;;;;;;;43.23;23.97;;;18.30;99.90;;;;;;4374104;32;20160;-62
2021/07/14 02:26:38;;;;;;;43.50;23.97;;;18.30;99.90;;;;;;4368226;32;20167;-61
2021/07/14 02:29:05;;;;;;;43.53;25.50;;;18.30;99.90;;;;;;4359998;33;20160;-62
2021/07/14 02:31:34;;;;;;;41.13;23.83;;;18.20;99.90;;;;;;4364525;32;20175;-61
2021/07/14 02:34:02;;;;;;;40.07;23.47;;;18.20;99.90;;;;;;4374745;32;20220;-62
2021/07/14 02:36:32;;;;;;;38.73;23.73;;;18.20;99.90;;;;;;4377065;32;20191;-61
2021/07/14 02:39:02;;;;;;;57.00;27.57;;;18.30;99.90;;;;;;4377466;32;20173;-61
2021/07/14 02:41:34;;;;;;;48.83;25.57;;;18.30;99.90;;;;;;4380253;32;20210;-62
2021/07/14 02:44:07;;;;;;;39.07;23.10;;;18.30;99.90;;;;;;4378815;32;20613;-61
2021/07/14 02:46:38;;;;;;;38.63;22.17;;;18.30;99.90;;;;;;4377579;32;20169;-61
2021/07/14 02:49:07;;;;;;;46.87;26.47;;;18.40;99.90;;;;;;4376937;32;20231;-61
2021/07/14 02:51:36;;;;;;;50.43;24.73;;;18.40;99.90;;;;;;4375427;32;20180;-61
2021/07/14 02:54:06;;;;;;;39.43;24.57;;;18.40;99.90;;;;;;4376253;32;20196;-62
2021/07/14 02:56:34;;;;;;;46.10;27.30;;;18.40;99.90;;;;;;4377299;32;20176;-61
2021/07/14 02:59:03;;;;;;;48.07;28.50;;;18.30;99.90;;;;;;4377034;32;20187;-62
2021/07/14 03:01:31;;;;;;;40.50;25.53;;;18.30;99.90;;;;;;4362296;32;20152;-62
2021/07/14 03:04:00;;;;;;;39.03;26.13;;;18.20;99.90;;;;;;4375706;32;20145;-61
2021/07/14 03:06:32;;;;;;;42.17;26.63;;;18.30;99.90;;;;;;4362376;33;20144;-62
2021/07/14 03:09:04;;;;;;;42.33;24.73;;;18.30;99.90;;;;;;4362540;32;20204;-62
2021/07/14 03:11:34;;;;;;;53.57;29.57;;;18.30;99.90;;;;;;4382901;32;20672;-61
2021/07/14 03:14:02;;;;;;;48.00;26.87;;;18.30;99.90;;;;;;4381453;32;20156;-61
2021/07/14 03:16:31;;;;;;;41.13;26.03;;;18.30;99.90;;;;;;4376173;32;20551;-61
2021/07/14 03:19:05;;;;;;;38.07;25.50;;;18.30;99.90;;;;;;4377338;32;20216;-61
2021/07/14 03:21:33;;;;;;;46.67;27.80;;;18.30;99.90;;;;;;4378078;32;20611;-62
2021/07/14 03:24:01;;;;;;;40.53;25.43;;;18.20;99.90;;;;;;4367056;32;20625;-62
2021/07/14 03:26:28;;;;;;;39.53;24.10;;;18.20;99.90;;;;;;4371383;32;20223;-61
2021/07/14 03:28:55;;;;;;;49.87;26.97;;;18.20;99.90;;;;;;4376942;32;20222;-63
2021/07/14 03:31:22;;;;;;;45.17;23.93;;;18.10;99.90;;;;;;4376372;32;20206;-61
2021/07/14 03:33:49;;;;;;;43.50;25.13;;;18.10;99.90;;;;;;4375416;32;20232;-62
2021/07/14 03:36:18;;;;;;;33.40;22.60;;;18.10;99.90;;;;;;4377762;32;20216;-62
2021/07/14 03:38:45;;;;;;;34.23;23.27;;;18.10;99.90;;;;;;4377622;32;20164;-61
2021/07/14 03:41:13;;;;;;;37.20;22.67;;;18.10;99.90;;;;;;4377423;32;20595;-62
2021/07/14 03:43:40;;;;;;;30.80;21.37;;;18.20;99.90;;;;;;4377068;32;20180;-62
2021/07/14 03:46:08;;;;;;;27.83;19.13;;;18.20;99.90;;;;;;4361421;32;20176;-61
2021/07/14 03:48:36;;;;;;;31.63;20.63;;;18.30;99.90;;;;;;4361271;33;20167;-62
2021/07/14 03:51:03;;;;;;;32.37;21.07;;;18.40;99.90;;;;;;4376065;32;20164;-61
2021/07/14 03:53:32;;;;;;;29.23;21.13;;;18.40;99.90;;;;;;4373945;32;20212;-62
2021/07/14 03:55:59;;;;;;;34.70;22.07;;;18.20;99.90;;;;;;4363129;32;20191;-61
2021/07/14 03:58:27;;;;;;;26.70;20.77;;;18.20;99.90;;;;;;4311745;32;1713825;-61
2021/07/14 04:00:55;;;;;;;26.33;20.57;;;18.10;99.90;;;;;;4376205;32;20577;-61
2021/07/14 04:03:26;;;;;;;23.43;18.03;;;18.20;99.90;;;;;;4376204;32;20274;-62
2021/07/14 04:05:55;;;;;;;25.67;20.47;;;18.30;99.90;;;;;;4372759;32;20145;-62
2021/07/14 04:08:25;;;;;;;28.63;19.57;;;18.30;99.90;;;;;;4376099;32;20161;-61
2021/07/14 04:10:57;;;;;;;25.30;17.57;;;18.30;99.90;;;;;;4375525;32;20224;-61
2021/07/14 04:13:23;;;;;;;22.50;16.73;;;18.30;99.90;;;;;;4376033;32;20212;-62
2021/07/14 04:15:50;;;;;;;31.37;19.07;;;18.40;99.90;;;;;;4374896;32;20175;-62
2021/07/14 04:18:17;;;;;;;25.37;19.27;;;18.40;99.90;;;;;;4377015;32;20216;-61
2021/07/14 04:20:44;;;;;;;22.33;17.77;;;18.40;99.90;;;;;;4376950;32;20584;-61
2021/07/14 04:23:11;;;;;;;21.80;17.03;;;18.40;99.90;;;;;;4375427;32;20191;-61
2021/07/14 04:25:38;;;;;;;29.23;17.67;;;18.40;99.90;;;;;;4370848;32;20160;-61
2021/07/14 04:28:06;;;;;;;23.20;17.73;;;18.30;99.90;;;;;;4376566;32;20186;-60
2021/07/14 04:30:34;;;;;;;25.00;18.17;;;18.30;99.90;;;;;;4375453;32;20592;-61
2021/07/14 04:33:00;;;;;;;26.60;17.03;;;18.20;99.90;;;;;;4376634;32;20179;-61
2021/07/14 04:35:30;;;;;;;30.57;19.27;;;18.20;99.90;;;;;;4369412;32;20204;-61
2021/07/14 04:37:57;;;;;;;23.43;16.27;;;18.10;99.90;;;;;;4375851;32;20200;-61
2021/07/14 04:40:24;;;;;;;24.83;17.03;;;18.20;99.90;;;;;;4375529;32;20182;-60
2021/07/14 04:42:51;;;;;;;23.97;16.40;;;18.10;99.90;;;;;;4375571;32;20220;-60
2021/07/14 04:45:20;;;;;;;18.60;15.40;;;18.20;99.90;;;;;;4374429;32;20262;-61
2021/07/14 04:47:47;;;;;;;23.03;16.53;;;18.30;99.90;;;;;;4377478;32;20153;-61
2021/07/14 04:50:14;;;;;;;23.97;15.90;;;18.30;99.90;;;;;;4375531;32;20465;-61
2021/07/14 04:52:40;;;;;;;22.57;15.97;;;18.40;99.90;;;;;;4375006;32;20246;-61
2021/07/14 04:55:08;;;;;;;20.97;14.30;;;18.40;99.90;;;;;;4373721;32;20243;-63
2021/07/14 04:57:35;;;;;;;23.67;15.60;;;18.50;99.90;;;;;;4375391;32;20182;-63
2021/07/14 05:00:04;;;;;;;19.83;13.10;;;18.50;99.90;;;;;;4375296;32;20164;-61
2021/07/14 05:02:32;;;;;;;19.43;15.27;;;18.50;99.90;;;;;;4362631;32;20223;-60
2021/07/14 05:04:59;;;;;;;21.13;14.37;;;18.50;99.90;;;;;;4372907;32;20627;-62
2021/07/14 05:07:28;;;;;;;18.97;14.03;;;18.50;99.90;;;;;;4375659;32;20167;-61
2021/07/14 05:09:55;;;;;;;19.30;15.80;;;18.60;99.90;;;;;;4375865;32;20174;-61
2021/07/14 05:12:22;;;;;;;22.43;15.43;;;18.50;99.90;;;;;;4373278;32;20282;-61
2021/07/14 05:14:49;;;;;;;20.60;15.00;;;18.40;99.90;;;;;;4374158;32;20212;-62
2021/07/14 05:17:15;;;;;;;24.53;15.27;;;18.50;99.90;;;;;;4373956;32;20175;-61
2021/07/14 05:19:44;;;;;;;18.97;14.83;;;18.60;99.90;;;;;;4374561;32;20172;-62
2021/07/14 05:22:11;;;;;;;16.17;12.70;;;18.70;99.90;;;;;;4374209;32;20548;-61
2021/07/14 05:24:38;;;;;;;16.43;13.47;;;18.80;99.90;;;;;;4367763;32;20637;-61
2021/07/14 05:27:05;;;;;;;18.63;13.87;;;18.90;99.90;;;;;;4377081;32;20538;-62
2021/07/14 05:29:32;;;;;;;19.70;14.70;;;18.90;99.90;;;;;;4374196;32;20168;-62
2021/07/14 05:31:59;;;;;;;18.83;13.80;;;18.80;99.90;;;;;;4362018;32;20179;-62
2021/07/14 05:34:26;;;;;;;18.70;14.17;;;18.90;99.90;;;;;;4376126;32;20176;-61
2021/07/14 05:36:54;;;;;;;15.30;12.60;;;19.00;99.90;;;;;;4375163;32;20152;-61
2021/07/14 05:39:22;;;;;;;16.83;13.57;;;18.90;99.90;;;;;;4373523;32;20191;-61
2021/07/14 05:41:49;;;;;;;18.13;15.37;;;19.00;99.90;;;;;;4376449;32;20176;-62
2021/07/14 05:44:16;;;;;;;21.23;13.77;;;18.90;99.90;;;;;;4371538;32;20228;-61
2021/07/14 05:46:43;;;;;;;22.87;15.57;;;18.90;99.90;;;;;;4375646;32;20178;-61
2021/07/14 05:49:10;;;;;;;20.33;15.27;;;18.90;99.90;;;;;;4377973;32;20163;-62
2021/07/14 05:51:37;;;;;;;25.23;16.97;;;18.90;99.90;;;;;;4366712;32;20185;-62
2021/07/14 05:54:05;;;;;;;24.10;16.90;;;18.90;99.90;;;;;;4376296;32;20224;-61
2021/07/14 05:56:32;;;;;;;25.70;16.67;;;18.90;99.90;;;;;;4382971;32;20164;-61
2021/07/14 05:58:59;;;;;;;23.40;16.37;;;18.90;99.90;;;;;;4377389;32;20163;-61
2021/07/14 06:01:28;;;;;;;20.70;15.57;;;19.00;99.90;;;;;;4370683;32;20223;-62
2021/07/14 06:03:56;;;;;;;25.07;17.00;;;18.90;99.90;;;;;;4370502;32;20591;-61
2021/07/14 06:06:23;;;;;;;20.03;15.60;;;19.00;99.90;;;;;;4374827;32;20157;-62
2021/07/14 06:08:49;;;;;;;24.00;16.77;;;19.00;99.90;;;;;;4375445;32;20224;-61
2021/07/14 06:11:18;;;;;;;18.83;15.70;;;19.10;99.90;;;;;;4373227;32;20164;-61
2021/07/14 06:13:44;;;;;;;22.50;16.10;;;19.10;99.90;;;;;;4378733;32;20171;-62
2021/07/14 06:16:11;;;;;;;22.83;16.83;;;19.10;99.90;;;;;;4377045;32;20210;-62
2021/07/14 06:18:38;;;;;;;24.83;17.50;;;19.10;99.90;;;;;;4378317;32;20191;-61
2021/07/14 06:21:05;;;;;;;24.53;18.27;;;18.90;99.90;;;;;;4377128;32;20212;-62
2021/07/14 06:23:33;;;;;;;25.53;19.00;;;19.00;99.90;;;;;;4378735;32;20230;-62
2021/07/14 06:26:00;;;;;;;28.80;20.43;;;19.00;99.90;;;;;;4378456;32;20555;-62
2021/07/14 06:28:28;;;;;;;29.47;19.30;;;18.90;99.90;;;;;;4379114;32;20471;-62
2021/07/14 06:30:55;;;;;;;33.60;22.10;;;18.90;99.90;;;;;;4380275;32;20173;-62
2021/07/14 06:33:22;;;;;;;29.33;21.33;;;18.90;99.90;;;;;;4378560;32;20191;-62
2021/07/14 06:35:51;;;;;;;28.00;19.03;;;18.80;99.90;;;;;;4376953;32;20606;-61
2021/07/14 06:38:18;;;;;;;29.83;20.40;;;18.90;99.90;;;;;;4379305;32;20153;-62
2021/07/14 06:40:45;;;;;;;29.37;21.07;;;18.90;99.90;;;;;;4376598;32;20631;-62
2021/07/14 06:43:15;;;;;;;31.30;21.83;;;18.90;99.90;;;;;;4373303;32;20259;-61
2021/07/14 06:45:48;;;;;;;28.53;20.60;;;18.90;99.90;;;;;;4373467;32;20157;-62
2021/07/14 06:48:15;;;;;;;32.83;23.10;;;19.00;99.90;;;;;;4373573;32;20158;-61
2021/07/14 06:50:42;;;;;;;28.90;21.67;;;19.00;99.90;;;;;;4378024;32;20500;-61
2021/07/14 06:53:09;;;;;;;35.10;22.93;;;19.10;99.90;;;;;;4375582;32;20180;-62
2021/07/14 06:55:35;;;;;;;34.07;23.67;;;19.10;99.90;;;;;;4372543;32;20580;-63
2021/07/14 06:58:03;;;;;;;31.53;21.70;;;19.10;99.90;;;;;;4367047;32;20223;-62
2021/07/14 07:00:34;;;;;;;34.43;22.77;;;19.00;99.90;;;;;;4366669;32;20542;-62
2021/07/14 07:03:03;;;;;;;37.90;25.33;;;19.00;99.90;;;;;;4368256;32;20242;-62
2021/07/14 07:05:30;;;;;;;38.70;25.53;;;18.90;99.90;;;;;;4372904;32;20160;-62
2021/07/14 07:07:57;;;;;;;38.80;25.50;;;18.90;99.90;;;;;;4373934;32;20156;-62
2021/07/14 07:10:23;;;;;;;35.60;24.13;;;18.90;99.90;;;;;;4376092;32;20580;-62
2021/07/14 07:12:50;;;;;;;37.27;26.37;;;18.90;99.90;;;;;;4375038;32;20168;-62
2021/07/14 07:15:18;;;;;;;33.27;22.37;;;19.00;99.90;;;;;;4373924;32;20156;-62
2021/07/14 07:17:45;;;;;;;39.83;23.67;;;19.00;99.90;;;;;;4375523;32;20152;-61
2021/07/14 07:20:15;;;;;;;35.50;23.00;;;19.00;99.90;;;;;;4377047;32;20195;-62
2021/07/14 07:22:42;;;;;;;42.97;24.07;;;19.10;99.90;;;;;;4371642;32;20210;-62
2021/07/14 07:25:10;;;;;;;39.73;22.67;;;19.20;99.90;;;;;;4374756;32;20171;-62
2021/07/14 07:27:38;;;;;;;34.33;21.90;;;19.20;99.90;;;;;;4375219;32;20202;-62
2021/07/14 07:30:07;;;;;;;34.90;22.90;;;19.30;99.90;;;;;;4375908;32;20227;-62
2021/07/14 07:32:34;;;;;;;38.07;23.90;;;19.30;99.90;;;;;;4374078;32;20272;-61
2021/07/14 07:35:01;;;;;;;32.33;21.17;;;19.30;99.90;;;;;;4381834;32;20568;-62
2021/07/14 07:37:30;;;;;;;25.80;19.53;;;19.40;99.90;;;;;;4371887;32;20156;-62
2021/07/14 07:39:57;;;;;;;36.03;22.07;;;19.50;99.90;;;;;;4378279;32;20157;-62
2021/07/14 07:42:24;;;;;;;32.27;21.00;;;19.70;99.90;;;;;;4385408;32;20175;-62
2021/07/14 07:44:51;;;;;;;33.37;21.70;;;19.60;99.90;;;;;;4382944;32;20204;-61
2021/07/14 07:47:18;;;;;;;32.53;22.30;;;19.70;99.90;;;;;;4368979;32;20634;-62
2021/07/14 07:49:46;;;;;;;26.53;20.20;;;19.40;99.90;;;;;;4377662;32;20223;-62
2021/07/14 07:52:13;;;;;;;27.03;19.77;;;19.30;99.90;;;;;;4375571;32;20224;-62
2021/07/14 07:54:41;;;;;;;31.43;21.17;;;19.30;99.90;;;;;;4379662;32;20271;-61
2021/07/14 07:57:09;;;;;;;32.90;20.93;;;19.20;99.90;;;;;;4386169;32;20179;-61
2021/07/14 07:59:36;;;;;;;29.63;20.30;;;19.20;99.90;;;;;;4382084;32;20223;-62
2021/07/14 08:02:03;;;;;;;30.70;21.50;;;19.20;99.90;;;;;;4380789;32;20697;-62
2021/07/14 08:04:30;;;;;;;26.20;19.27;;;19.10;99.90;;;;;;4372808;32;20220;-62
2021/07/14 08:06:57;;;;;;;28.13;20.03;;;19.20;99.90;;;;;;4378684;32;20223;-61
2021/07/14 08:09:24;;;;;;;28.93;19.67;;;19.40;99.90;;;;;;4380728;32;20183;-63
2021/07/14 08:11:53;;;;;;;30.90;20.87;;;19.40;99.90;;;;;;4376485;32;20171;-61
2021/07/14 08:14:20;;;;;;;23.07;17.53;;;19.60;99.90;;;;;;4380812;32;20211;-62
2021/07/14 08:16:47;;;;;;;26.80;18.60;;;19.80;99.90;;;;;;4382208;32;20225;-62
2021/07/14 08:19:14;;;;;;;25.83;19.53;;;20.00;99.90;;;;;;4382848;32;20172;-61
2021/07/14 08:21:41;;;;;;;23.10;18.90;;;20.00;99.90;;;;;;4380067;32;20202;-61
2021/07/14 08:24:08;;;;;;;24.63;18.00;;;19.90;99.90;;;;;;4381261;32;20172;-62
2021/07/14 08:26:37;;;;;;;21.63;16.67;;;19.80;99.90;;;;;;4382297;32;20164;-61
2021/07/14 08:29:05;;;;;;;27.93;18.43;;;19.80;99.90;;;;;;4387122;32;20187;-62
2021/07/14 08:31:32;;;;;;;26.27;18.40;;;19.70;99.90;;;;;;4378957;32;20484;-62
2021/07/14 08:33:59;;;;;;;22.87;16.60;;;19.70;99.90;;;;;;4378913;32;20599;-62
2021/07/14 08:36:26;;;;;;;24.77;17.13;;;19.60;99.90;;;;;;4380997;32;20773;-63
2021/07/14 08:38:53;;;;;;;28.03;18.13;;;19.60;99.90;;;;;;4379892;32;20206;-61
2021/07/14 08:41:21;;;;;;;29.33;19.13;;;19.40;99.90;;;;;;4373843;32;20203;-62
2021/07/14 08:43:49;;;;;;;25.23;17.47;;;19.30;99.90;;;;;;4372256;32;20226;-62
2021/07/14 08:46:18;;;;;;;26.47;17.23;;;19.20;99.90;;;;;;4377596;32;20219;-61
2021/07/14 08:48:45;;;;;;;19.10;15.53;;;19.40;99.90;;;;;;4371413;32;20243;-61
2021/07/14 08:51:15;;;;;;;26.40;16.40;;;19.50;99.90;;;;;;4372537;32;20279;-60
2021/07/14 08:53:42;;;;;;;23.17;16.00;;;19.80;99.90;;;;;;4370898;32;20212;-61
2021/07/14 08:56:09;;;;;;;27.00;19.17;;;19.90;99.90;;;;;;4375517;32;20180;-61
2021/07/14 08:58:35;;;;;;;27.73;17.00;;;19.90;99.90;;;;;;4374967;32;20243;-61
2021/07/14 09:01:02;;;;;;;27.33;19.80;;;19.90;99.90;;;;;;4380315;32;20346;-62
2021/07/14 09:03:31;;;;;;;23.30;16.53;;;19.90;99.90;;;;;;4377577;32;20287;-61
2021/07/14 09:05:58;;;;;;;29.07;18.10;;;19.80;99.90;;;;;;4375055;32;20168;-61
2021/07/14 09:08:25;;;;;;;27.83;19.73;;;19.80;99.90;;;;;;4375778;32;20153;-61
2021/07/14 09:10:52;;;;;;;27.77;17.87;;;19.70;99.90;;;;;;4376341;32;20160;-61
2021/07/14 09:13:19;;;;;;;28.67;19.43;;;19.90;99.90;;;;;;4374678;32;20224;-62
2021/07/14 09:15:48;;;;;;;30.63;19.67;;;19.80;99.90;;;;;;4379724;32;20242;-61
2021/07/14 09:18:16;;;;;;;25.10;15.73;;;19.60;99.90;;;;;;4375600;32;20267;-62
2021/07/14 09:20:44;;;;;;;29.23;18.77;;;19.70;99.90;;;;;;4377395;32;20195;-62
2021/07/14 09:23:13;;;;;;;32.00;20.57;;;19.90;99.90;;;;;;4377895;32;20220;-61
2021/07/14 09:25:42;;;;;;;27.30;18.70;;;19.80;99.90;;;;;;4383128;32;20164;-62
2021/07/14 09:28:10;;;;;;;30.00;17.77;;;19.60;99.90;;;;;;4373329;32;20179;-62
2021/07/14 09:30:38;;;;;;;28.60;18.83;;;19.80;99.90;;;;;;4376143;32;20210;-63
2021/07/14 09:33:06;;;;;;;28.47;18.67;;;19.80;99.90;;;;;;4374767;32;20569;-61
2021/07/14 09:35:36;;;;;;;29.97;18.97;;;19.80;99.90;;;;;;4377240;32;20572;-64
2021/07/14 09:38:08;;;;;;;28.23;18.67;;;19.80;99.90;;;;;;4373264;32;20227;-62
2021/07/14 09:40:35;;;;;;;24.63;16.53;;;19.70;99.90;;;;;;4375038;32;20537;-63
2021/07/14 09:43:04;;;;;;;24.77;18.20;;;19.80;99.90;;;;;;4379413;32;20211;-63
2021/07/14 09:45:46;;;;;;;24.90;17.97;;;20.10;99.90;;;;;;4377977;32;20488;-64
2021/07/14 09:48:15;;;;;;;25.70;17.03;;;20.10;99.90;;;;;;4374316;32;20646;-64
2021/07/14 09:50:44;;;;;;;25.53;16.67;;;20.10;99.90;;;;;;4379298;32;20194;-64
2021/07/14 09:53:14;;;;;;;24.33;16.30;;;20.20;99.90;;;;;;4376077;32;20530;-62
2021/07/14 09:55:42;;;;;;;19.60;14.80;;;20.20;99.90;;;;;;4376743;32;20193;-61
2021/07/14 09:58:11;;;;;;;23.50;15.50;;;20.30;99.90;;;;;;4371413;32;20187;-62
2021/07/14 10:00:42;;;;;;;19.47;14.80;;;20.10;99.90;;;;;;4376412;32;20224;-62
2021/07/14 10:03:10;;;;;;;20.57;14.83;;;20.10;99.90;;;;;;4377394;32;20227;-61
2021/07/14 10:05:36;;;;;;;26.33;16.27;;;20.00;99.90;;;;;;4374633;32;20195;-62
2021/07/14 10:08:22;;;;;;;24.20;15.70;;;20.00;99.90;;;;;;4375860;32;20224;-61
2021/07/14 10:10:51;;;;;;;32.20;19.00;;;19.70;99.90;;;;;;4374714;32;20437;-61
2021/07/14 10:13:21;;;;;;;22.93;16.17;;;19.60;99.90;;;;;;4376020;32;20659;-61
2021/07/14 10:16:01;;;;;;;28.43;18.13;;;19.90;99.90;;;;;;4379063;32;20167;-62
2021/07/14 10:18:28;;;;;;;32.23;17.87;;;19.70;99.90;;;;;;4373076;32;20227;-61
2021/07/14 10:20:55;;;;;;;30.30;19.07;;;19.60;99.90;;;;;;4381401;32;20499;-63
2021/07/14 10:23:24;;;;;;;25.27;16.27;;;19.70;99.90;;;;;;4377557;32;20153;-63
2021/07/14 10:25:52;;;;;;;24.40;16.47;;;19.80;99.90;;;;;;4384979;32;20160;-62
2021/07/14 10:28:21;;;;;;;24.43;17.00;;;19.80;99.90;;;;;;4379568;32;20192;-62
2021/07/14 10:30:51;;;;;;;24.80;15.80;;;19.80;99.90;;;;;;4376562;32;20160;-62
2021/07/14 10:33:19;;;;;;;25.67;16.73;;;19.90;99.90;;;;;;4374195;32;20210;-62
2021/07/14 10:35:47;;;;;;;25.93;17.63;;;19.80;99.90;;;;;;4377043;32;20595;-62
2021/07/14 10:38:16;;;;;;;25.67;17.13;;;19.80;99.90;;;;;;4373938;32;20192;-63
2021/07/14 10:40:46;;;;;;;28.67;17.53;;;19.90;99.90;;;;;;4370696;32;20145;-62
2021/07/14 10:43:16;;;;;;;23.83;17.80;;;19.90;99.90;;;;;;4374121;32;20160;-63
2021/07/14 10:45:46;;;;;;;25.23;17.67;;;19.90;99.90;;;;;;4373605;32;20676;-62
2021/07/14 10:48:15;;;;;;;29.17;18.13;;;19.80;99.90;;;;;;4375804;32;20164;-62
2021/07/14 10:50:42;;;;;;;30.80;17.13;;;19.70;99.90;;;;;;4376641;32;20242;-62
2021/07/14 10:53:11;;;;;;;28.17;17.17;;;19.80;99.90;;;;;;4373195;32;20204;-63
2021/07/14 10:55:39;;;;;;;28.80;17.70;;;20.00;99.90;;;;;;4375859;32;20223;-62
2021/07/14 10:58:09;;;;;;;25.50;17.50;;;20.20;99.90;;;;;;4377165;32;20187;-62
2021/07/14 11:00:40;;;;;;;28.80;18.50;;;20.00;99.90;;;;;;4376785;32;20214;-62
2021/07/14 11:03:08;;;;;;;23.80;15.07;;;20.10;99.90;;;;;;4379708;32;20224;-62
2021/07/14 11:05:45;;;;;;;26.70;17.67;;;20.10;99.90;;;;;;4377962;32;20160;-62
2021/07/14 11:08:32;;;;;;;30.03;17.20;;;20.10;99.90;;;;;;4377764;32;20164;-62
2021/07/14 11:11:00;;;;;;;26.27;16.93;;;20.20;99.90;;;;;;4379005;32;20530;-62
2021/07/14 11:13:30;;;;;;;23.97;15.50;;;20.30;99.90;;;;;;4370962;32;20172;-61
2021/07/14 11:15:58;;;;;;;25.67;17.57;;;20.40;99.90;;;;;;4373174;32;20445;-62
2021/07/14 11:18:39;;;;;;;24.33;17.67;;;20.10;99.90;;;;;;4377647;32;20618;-61
2021/07/14 11:21:06;;;;;;;28.40;18.17;;;19.90;99.90;;;;;;4373773;32;20184;-62
2021/07/14 11:23:33;;;;;;;23.53;16.67;;;20.00;99.90;;;;;;4373517;32;20583;-62
2021/07/14 11:26:02;;;;;;;24.00;17.70;;;19.90;99.90;;;;;;4379948;32;20171;-62
2021/07/14 11:28:32;;;;;;;25.63;16.40;;;19.70;99.90;;;;;;4376429;32;20152;-62
2021/07/14 11:31:10;;;;;;;18.33;14.20;;;19.90;99.90;;;;;;4377196;32;20160;-62
2021/07/14 11:33:38;;;;;;;20.80;15.13;;;20.10;99.90;;;;;;4380939;32;20658;-62
2021/07/14 11:36:07;;;;;;;24.13;15.77;;;20.30;99.90;;;;;;4379307;32;20171;-62
2021/07/14 11:38:47;;;;;;;20.80;16.40;;;20.40;99.90;;;;;;4375366;32;20195;-62
2021/07/14 11:41:23;;;;;;;23.20;15.47;;;20.10;99.90;;;;;;4375657;32;20236;-62
2021/07/14 11:43:54;;;;;;;21.53;13.43;;;20.20;99.90;;;;;;4372645;32;20588;-62
2021/07/14 11:46:26;;;;;;;23.37;14.97;;;20.30;99.90;;;;;;4376314;32;20212;-61
2021/07/14 11:49:02;;;;;;;18.53;13.67;;;20.30;99.90;;;;;;4374188;32;20318;-62
2021/07/14 11:51:33;;;;;;;21.23;16.07;;;20.50;99.90;;;;;;4376504;32;20223;-62
2021/07/14 11:54:00;;;;;;;16.43;13.83;;;20.80;99.90;;;;;;4374857;32;20160;-62
2021/07/14 11:56:45;;;;;;;20.13;14.97;;;21.10;99.90;;;;;;4375612;32;20163;-63
2021/07/14 11:59:19;;;;;;;17.17;13.67;;;20.90;99.90;;;;;;4374267;32;20180;-62
2021/07/14 12:01:58;;;;;;;16.27;12.60;;;21.10;99.90;;;;;;4373770;32;20160;-62
2021/07/14 12:04:29;;;;;;;19.80;15.10;;;21.20;99.90;;;;;;4376222;32;20210;-62
2021/07/14 12:07:06;;;;;;;20.37;14.80;;;21.10;99.90;;;;;;4375343;32;20580;-62
2021/07/14 12:09:38;;;;;;;20.13;15.37;;;20.90;99.90;;;;;;4374934;32;20184;-62
2021/07/14 12:12:13;;;;;;;18.33;14.00;;;20.50;99.90;;;;;;4374632;32;20200;-62
2021/07/14 12:14:42;;;;;;;20.87;14.77;;;20.60;99.90;;;;;;4375702;32;20222;-61
2021/07/14 12:17:11;;;;;;;22.03;15.00;;;20.40;99.90;;;;;;4375924;32;20227;-62
2021/07/14 12:19:39;;;;;;;19.60;12.53;;;20.70;99.90;;;;;;4375840;32;20161;-61
2021/07/14 12:22:09;;;;;;;23.00;14.63;;;20.90;99.90;;;;;;4378227;32;20503;-62
2021/07/14 12:24:48;;;;;;;20.57;14.37;;;20.80;99.90;;;;;;4372690;32;20199;-61
2021/07/14 12:27:20;;;;;;;21.90;13.90;;;20.90;99.90;;;;;;4376172;32;20205;-62
2021/07/14 12:29:53;;;;;;;17.17;12.87;;;20.80;99.90;;;;;;4376682;32;20179;-62
2021/07/14 12:32:35;;;;;;;13.00;11.40;;;21.00;99.90;;;;;;4376588;32;20156;-61
2021/07/14 12:35:07;;;;;;;20.10;13.20;;;21.40;99.90;;;;;;4373515;32;20172;-62
2021/07/14 12:37:34;;;;;;;18.13;12.07;;;21.50;99.90;;;;;;4375762;32;20183;-64
2021/07/14 12:40:01;;;;;;;20.73;13.30;;;21.80;99.90;;;;;;4377115;32;20172;-63
2021/07/14 12:42:28;;;;;;;13.97;11.17;;;21.60;99.90;;;;;;4374342;32;20160;-64
2021/07/14 12:44:56;;;;;;;17.30;11.70;;;21.70;99.90;;;;;;4378174;32;20175;-62